Forside
METAR-TAF:

METAR-TAF

Lufthavne :

Boone Municipal Airport

Boone, Iowa, USA

Breddekreds: 42-03N, længdekreds: 093-51W, højde: 354 m

Aktuelle vejr

Denne rapport blev lavet for 17 minutter siden, kl. 03:35 UTC
Vind 15 kt fra sydøst
Temperatur -2°C
Fugtighed 100%
Tryk 1011 hPa
Sigt: 2.8 km
Overskyet i en højde af 400 ft
dis

METAR: KBNW 180335Z AUTO 14015KT 1 3/4SM BR OVC004 M02/M02 A2986 RMK AO2

Tid: 21:52 (03:52 UTC)


TAF: fraværende

Vejrobservationer og prognoser fra mere end 4000 lufthavne (METAR og TAF).

De gule og røde prikker repræsenterer de meteorologiske stationer.

Flyt musen over at se navnet på stationen.

Så klik over at se vejr observationer og prognoser.

At skifte det kort: Klik på de grønne knapper med et sort kors for at zoome ind; på den grønne knap med en bindestreg for at zoome ud; eller på de grønne pile for tilstødende kort.


METAR-TAF: